createdAt,value
2018-06-11T00:03:28.764Z,18.10
2018-06-11T00:07:32.470Z,18.10
2018-06-11T00:11:36.761Z,18.10
2018-06-11T00:15:40.466Z,18.00
2018-06-11T00:19:44.136Z,18.00
2018-06-11T00:23:47.815Z,18.00
2018-06-11T00:27:51.493Z,17.90
2018-06-11T00:31:55.188Z,17.90
2018-06-11T00:35:58.832Z,17.80
2018-06-11T00:40:02.597Z,17.80
2018-06-11T00:44:06.261Z,17.80
2018-06-11T00:48:09.919Z,17.80
2018-06-11T00:52:13.565Z,17.70
2018-06-11T00:56:23.916Z,17.70
2018-06-11T01:00:27.632Z,17.60
2018-06-11T01:04:31.303Z,17.60
2018-06-11T01:08:35.028Z,17.60
2018-06-11T01:12:38.681Z,17.50
2018-06-11T01:16:42.307Z,17.50
2018-06-11T01:20:45.973Z,17.50
2018-06-11T01:24:49.644Z,17.50
2018-06-11T01:28:53.395Z,17.40
2018-06-11T01:32:57.087Z,17.40
2018-06-11T01:37:00.763Z,17.40
2018-06-11T01:41:04.450Z,17.30
2018-06-11T01:45:08.208Z,17.30
2018-06-11T01:49:11.867Z,17.30
2018-06-11T01:53:15.535Z,17.30
2018-06-11T01:57:19.199Z,17.30
2018-06-11T02:01:22.819Z,17.30
2018-06-11T02:05:26.488Z,17.20
2018-06-11T02:09:30.219Z,17.30
2018-06-11T02:13:34.007Z,17.20
2018-06-11T02:17:37.679Z,17.20
2018-06-11T02:21:41.312Z,17.20
2018-06-11T02:25:44.986Z,17.10
2018-06-11T02:29:48.656Z,17.10
2018-06-11T02:33:52.369Z,17.10
2018-06-11T02:37:56.028Z,17.10
2018-06-11T02:41:59.672Z,17.00
2018-06-11T02:46:03.391Z,17.00
2018-06-11T02:50:07.229Z,16.90
2018-06-11T02:54:10.924Z,17.00
2018-06-11T02:58:14.576Z,16.90
2018-06-11T03:02:18.251Z,16.90
2018-06-11T03:06:21.944Z,16.80
2018-06-11T03:10:25.652Z,16.80
2018-06-11T03:14:29.338Z,16.80
2018-06-11T03:18:32.972Z,16.80
2018-06-11T03:22:36.649Z,16.80
2018-06-11T03:26:40.341Z,16.80
2018-06-11T03:30:44.005Z,16.80
2018-06-11T03:34:47.687Z,16.80
2018-06-11T03:38:51.331Z,16.80
2018-06-11T03:42:55.012Z,16.80
2018-06-11T03:46:58.788Z,16.80
2018-06-11T03:51:02.456Z,16.80
2018-06-11T03:55:06.324Z,16.80
2018-06-11T03:59:09.967Z,16.70
2018-06-11T04:03:13.619Z,16.70
2018-06-11T04:07:17.350Z,16.70
2018-06-11T04:11:21.055Z,16.70
2018-06-11T04:15:24.687Z,16.70
2018-06-11T04:19:28.379Z,16.60
2018-06-11T04:23:32.046Z,16.60
2018-06-11T04:27:35.712Z,16.50
2018-06-11T04:31:39.370Z,16.50
2018-06-11T04:35:43.007Z,16.50
2018-06-11T04:39:46.666Z,16.50
2018-06-11T04:43:50.334Z,16.50
2018-06-11T04:47:53.995Z,16.50
2018-06-11T04:51:57.664Z,16.50
2018-06-11T04:56:01.324Z,16.50
2018-06-11T05:00:05.078Z,16.50
2018-06-11T05:04:09.427Z,16.50
2018-06-11T05:08:13.182Z,16.50
2018-06-11T05:12:16.866Z,16.50
2018-06-11T05:16:20.530Z,16.50
2018-06-11T05:20:24.175Z,16.50
2018-06-11T05:24:27.843Z,16.50
2018-06-11T05:28:31.529Z,16.50
2018-06-11T05:32:35.279Z,16.50
2018-06-11T05:36:38.931Z,16.50
2018-06-11T05:40:42.608Z,16.50
2018-06-11T05:44:46.371Z,16.50
2018-06-11T05:48:50.036Z,16.50
2018-06-11T05:52:53.707Z,16.60
2018-06-11T05:56:57.384Z,16.60
2018-06-11T06:01:01.012Z,16.70
2018-06-11T06:05:04.751Z,16.70
2018-06-11T06:09:08.465Z,16.80
2018-06-11T06:13:12.140Z,16.80
2018-06-11T06:17:15.851Z,16.90
2018-06-11T06:21:19.541Z,16.90
2018-06-11T06:25:23.213Z,16.90
2018-06-11T06:29:26.879Z,16.90
2018-06-11T06:33:30.555Z,17.00
2018-06-11T06:37:34.192Z,17.00
2018-06-11T06:41:38.084Z,17.00
2018-06-11T06:45:41.825Z,17.10
2018-06-11T06:49:45.512Z,17.10
2018-06-11T06:53:49.471Z,17.20
2018-06-11T06:57:53.100Z,17.20
2018-06-11T07:01:56.804Z,17.30
2018-06-11T07:06:00.479Z,17.30
2018-06-11T07:10:04.222Z,17.40
2018-06-11T07:14:07.955Z,17.50
2018-06-11T07:18:11.684Z,17.60
2018-06-11T07:22:15.354Z,17.70
2018-06-11T07:26:19.012Z,17.70
2018-06-11T07:30:22.686Z,18.00
2018-06-11T07:34:26.362Z,18.50
2018-06-11T07:38:30.013Z,18.90
2018-06-11T07:42:33.753Z,19.00
2018-06-11T07:46:37.443Z,18.90
2018-06-11T07:50:41.431Z,18.90
2018-06-11T07:54:45.284Z,18.90
2018-06-11T07:58:48.970Z,18.80
2018-06-11T08:02:52.704Z,18.90
2018-06-11T08:06:56.643Z,18.90
2018-06-11T08:11:00.347Z,19.00
2018-06-11T08:15:04.059Z,19.10
2018-06-11T08:19:07.703Z,19.60
2018-06-11T08:27:14.814Z,21.20
2018-06-11T08:31:18.526Z,22.60
2018-06-11T08:35:22.214Z,22.90
2018-06-11T08:39:25.946Z,22.90
2018-06-11T08:43:29.665Z,22.90
2018-06-11T08:51:36.726Z,22.50
2018-06-11T08:55:40.447Z,22.10
2018-06-11T08:59:44.193Z,22.00
2018-06-11T09:03:47.911Z,21.90
2018-06-11T09:07:51.680Z,21.90
2018-06-11T09:11:55.361Z,22.10
2018-06-11T09:15:59.093Z,22.50
2018-06-11T09:20:02.747Z,22.90
2018-06-11T09:24:06.431Z,23.20
2018-06-11T09:28:10.112Z,23.30
2018-06-11T09:32:13.799Z,23.40
2018-06-11T09:36:17.479Z,23.20
2018-06-11T09:40:21.117Z,23.00
2018-06-11T09:44:31.988Z,22.70
2018-06-11T09:48:35.676Z,22.50
2018-06-11T09:52:39.400Z,22.40
2018-06-11T09:56:43.072Z,22.30
2018-06-11T10:00:46.704Z,22.20
2018-06-11T10:04:50.376Z,22.20
2018-06-11T10:08:54.084Z,22.30
2018-06-11T10:12:57.750Z,22.30
2018-06-11T10:17:01.461Z,22.30
2018-06-11T10:21:05.087Z,22.30
2018-06-11T10:25:08.764Z,22.30
2018-06-11T10:29:12.417Z,22.30
2018-06-11T10:33:16.097Z,22.20
2018-06-11T10:37:19.772Z,22.10
2018-06-11T10:41:23.412Z,22.00
2018-06-11T10:45:27.084Z,22.00
2018-06-11T10:49:30.752Z,22.00
2018-06-11T10:53:34.437Z,22.00
2018-06-11T10:57:38.155Z,22.00
2018-06-11T11:01:41.808Z,22.00
2018-06-11T11:05:45.493Z,22.10
2018-06-11T11:09:49.180Z,22.00
2018-06-11T11:13:52.848Z,22.10
2018-06-11T11:17:56.536Z,22.10
2018-06-11T11:22:00.174Z,22.20
2018-06-11T11:30:07.924Z,22.30
2018-06-11T11:34:11.625Z,22.50
2018-06-11T11:38:15.326Z,22.70
2018-06-11T11:42:19.088Z,22.80
2018-06-11T11:46:22.787Z,22.90
2018-06-11T11:50:26.473Z,23.00
2018-06-11T11:54:30.151Z,23.20
2018-06-11T11:58:33.894Z,23.40
2018-06-11T12:02:37.582Z,23.40
2018-06-11T12:06:41.298Z,23.50
2018-06-11T12:10:45.009Z,23.60
2018-06-11T12:14:48.704Z,23.70
2018-06-11T12:18:52.380Z,23.80
2018-06-11T12:22:56.071Z,24.00
2018-06-11T12:26:59.799Z,24.10
2018-06-11T12:31:03.483Z,24.30
2018-06-11T12:35:07.195Z,24.30
2018-06-11T12:39:10.891Z,24.50
2018-06-11T12:43:14.572Z,24.60
2018-06-11T12:47:18.330Z,24.80
2018-06-11T12:51:22.071Z,25.00
2018-06-11T12:55:25.741Z,25.10
2018-06-11T12:59:29.420Z,25.20
2018-06-11T13:03:33.173Z,25.20
2018-06-11T13:07:36.882Z,25.30
2018-06-11T13:15:43.863Z,25.50
2018-06-11T13:19:47.544Z,25.70
2018-06-11T13:23:51.224Z,25.70
2018-06-11T13:27:54.901Z,25.90
2018-06-11T13:31:58.592Z,25.90
2018-06-11T13:36:02.247Z,26.00
2018-06-11T13:40:05.996Z,26.10
2018-06-11T13:44:09.675Z,26.30
2018-06-11T13:48:13.422Z,26.40
2018-06-11T13:52:17.088Z,26.50
2018-06-11T13:56:20.776Z,26.60
2018-06-11T14:00:24.554Z,26.80
2018-06-11T14:04:28.296Z,26.80
2018-06-11T14:08:32.291Z,26.80
2018-06-11T14:12:35.938Z,26.90
2018-06-11T14:16:39.645Z,26.90
2018-06-11T14:20:43.451Z,26.80
2018-06-11T14:24:47.156Z,26.80
2018-06-11T14:28:50.931Z,26.70
2018-06-11T14:32:54.604Z,26.60
2018-06-11T14:36:58.266Z,26.60
2018-06-11T14:41:01.988Z,26.50
2018-06-11T14:45:05.780Z,26.50
2018-06-11T14:49:09.452Z,26.60
2018-06-11T14:53:13.170Z,26.70
2018-06-11T14:57:16.850Z,26.70
2018-06-11T15:01:20.524Z,26.70
2018-06-11T15:05:24.212Z,26.80
2018-06-11T15:09:27.979Z,26.90
2018-06-11T15:13:31.678Z,26.90
2018-06-11T15:17:35.351Z,27.00
2018-06-11T15:21:39.035Z,27.00
2018-06-11T15:25:42.703Z,27.00
2018-06-11T15:29:46.345Z,27.00
2018-06-11T15:33:50.024Z,27.00
2018-06-11T15:37:53.740Z,26.90
2018-06-11T15:41:57.484Z,26.90
2018-06-11T15:46:01.151Z,26.80
2018-06-11T15:50:04.838Z,26.80
2018-06-11T15:54:08.531Z,26.80
2018-06-11T15:58:12.202Z,26.70
2018-06-11T16:02:15.872Z,26.70
2018-06-11T16:06:19.559Z,26.60
2018-06-11T16:10:23.236Z,26.60
2018-06-11T16:14:26.911Z,26.50
2018-06-11T16:18:30.586Z,26.30
2018-06-11T16:22:34.287Z,26.20
2018-06-11T16:26:37.967Z,26.10
2018-06-11T16:30:41.584Z,25.90
2018-06-11T16:34:45.241Z,25.80
2018-06-11T16:38:48.890Z,25.70
2018-06-11T16:42:52.603Z,25.60
2018-06-11T16:46:56.236Z,25.50
2018-06-11T16:50:59.903Z,25.30
2018-06-11T16:55:03.625Z,25.20
2018-06-11T16:59:07.305Z,25.10
2018-06-11T17:03:10.973Z,25.00
2018-06-11T17:07:14.698Z,24.90
2018-06-11T17:11:18.365Z,24.80
2018-06-11T17:15:22.195Z,24.60
2018-06-11T17:19:25.867Z,24.50
2018-06-11T17:23:29.525Z,24.40
2018-06-11T17:27:33.160Z,24.40
2018-06-11T17:31:36.824Z,24.40
2018-06-11T17:35:40.484Z,24.30
2018-06-11T17:39:44.176Z,24.20
2018-06-11T17:43:47.970Z,24.20
2018-06-11T17:47:51.590Z,24.10
2018-06-11T17:51:55.277Z,24.10
2018-06-11T18:00:02.263Z,23.90
2018-06-11T18:04:05.965Z,23.80
2018-06-11T18:08:09.642Z,23.60
2018-06-11T18:12:13.450Z,23.60
2018-06-11T18:16:17.112Z,23.50
2018-06-11T18:20:20.768Z,23.40
2018-06-11T18:24:24.494Z,23.20
2018-06-11T18:28:28.112Z,23.10
2018-06-11T18:32:31.755Z,23.00
2018-06-11T18:36:35.424Z,22.90
2018-06-11T18:40:39.088Z,22.80
2018-06-11T18:44:42.756Z,22.70
2018-06-11T18:48:56.172Z,22.60
2018-06-11T18:53:00.163Z,22.50
2018-06-11T18:57:03.882Z,22.40
2018-06-11T19:01:07.552Z,22.30
2018-06-11T19:05:11.215Z,22.20
2018-06-11T19:09:14.874Z,22.10
2018-06-11T19:13:18.541Z,22.00
2018-06-11T19:17:22.261Z,21.80
2018-06-11T19:21:25.911Z,21.70
2018-06-11T19:25:29.579Z,21.60
2018-06-11T19:29:33.218Z,21.50
2018-06-11T19:33:36.871Z,21.40
2018-06-11T19:37:41.135Z,21.30
2018-06-11T19:41:44.812Z,21.20
2018-06-11T19:45:48.499Z,21.10
2018-06-11T19:49:52.137Z,21.00
2018-06-11T19:53:57.649Z,20.90
2018-06-11T19:58:02.085Z,20.90
2018-06-11T20:02:07.394Z,20.80
2018-06-11T20:06:11.145Z,20.70
2018-06-11T20:10:14.847Z,20.60
2018-06-11T20:14:18.543Z,20.50
2018-06-11T20:18:22.200Z,20.40
2018-06-11T20:22:25.922Z,20.30
2018-06-11T20:26:29.582Z,20.20
2018-06-11T20:30:33.200Z,20.10
2018-06-11T20:34:36.863Z,20.00
2018-06-11T20:38:40.838Z,19.90
2018-06-11T20:42:44.500Z,19.70
2018-06-11T20:46:48.398Z,19.60
2018-06-11T20:50:52.056Z,19.60
2018-06-11T20:54:55.746Z,19.50
2018-06-11T20:58:59.443Z,19.30
2018-06-11T21:03:03.116Z,19.20
2018-06-11T21:07:06.852Z,19.10
2018-06-11T21:11:10.534Z,19.00
2018-06-11T21:15:14.227Z,18.90
2018-06-11T21:19:17.906Z,18.80
2018-06-11T21:23:21.567Z,18.60
2018-06-11T21:27:25.230Z,18.60
2018-06-11T21:31:28.864Z,18.40
2018-06-11T21:35:32.566Z,18.30
2018-06-11T21:39:36.244Z,18.20
2018-06-11T21:43:39.927Z,18.10
2018-06-11T21:47:43.594Z,18.00
2018-06-11T21:51:47.231Z,17.90
2018-06-11T21:55:50.907Z,17.80
2018-06-11T21:59:54.568Z,17.70
2018-06-11T22:03:58.309Z,17.60
2018-06-11T22:08:02.021Z,17.50
2018-06-11T22:12:05.664Z,17.30
2018-06-11T22:16:09.358Z,17.30
2018-06-11T22:20:13.039Z,17.20
2018-06-11T22:24:16.771Z,17.10
2018-06-11T22:28:20.460Z,17.10
2018-06-11T22:32:24.097Z,17.00
2018-06-11T22:40:31.200Z,16.90
2018-06-11T22:44:34.884Z,16.80
2018-06-11T22:48:38.545Z,16.80
2018-06-11T22:52:42.164Z,16.70
2018-06-11T22:56:45.856Z,16.70
2018-06-11T23:00:49.548Z,16.60
2018-06-11T23:04:53.219Z,16.60
2018-06-11T23:08:56.928Z,16.50
2018-06-11T23:13:00.576Z,16.50
2018-06-11T23:17:04.264Z,16.40
2018-06-11T23:21:07.954Z,16.30
2018-06-11T23:25:11.637Z,16.30
2018-06-11T23:29:15.366Z,16.20
2018-06-11T23:33:19.000Z,16.20
2018-06-11T23:37:22.750Z,16.10
2018-06-11T23:41:26.432Z,16.00
2018-06-11T23:45:30.100Z,16.00
2018-06-11T23:49:33.773Z,15.90
2018-06-11T23:53:37.414Z,15.80
2018-06-11T23:57:41.104Z,15.70
